createdAt,value
2022-10-20T00:01:53.570Z,101052.38
2022-10-20T00:04:20.268Z,101260.00
2022-10-20T00:06:46.869Z,101245.25
2022-10-20T00:09:13.768Z,100913.47
2022-10-20T00:11:40.325Z,100880.72
2022-10-20T00:14:07.003Z,101129.38
2022-10-20T00:16:36.874Z,101018.59
2022-10-20T00:19:03.953Z,101157.81
2022-10-20T00:21:31.657Z,101165.91
2022-10-20T00:24:02.159Z,101094.25
2022-10-20T00:26:30.313Z,100938.97
2022-10-20T00:28:57.506Z,101060.06
2022-10-20T00:31:26.364Z,101083.16
2022-10-20T00:33:53.591Z,101197.47
2022-10-20T00:36:22.191Z,101208.03
2022-10-20T00:38:49.971Z,100879.38
2022-10-20T00:41:19.738Z,101094.03
2022-10-20T00:43:52.026Z,101202.19
2022-10-20T00:46:24.500Z,101114.19
2022-10-20T00:48:59.473Z,100873.28
2022-10-20T00:51:29.083Z,100990.63
2022-10-20T00:54:08.261Z,100914.22
2022-10-20T00:56:36.257Z,100910.59
2022-10-20T00:59:04.075Z,101143.28
2022-10-20T01:01:31.721Z,101042.72
2022-10-20T01:03:59.069Z,100975.41
2022-10-20T01:06:26.298Z,100961.03
2022-10-20T01:08:55.871Z,101149.31
2022-10-20T01:11:41.415Z,101159.25
2022-10-20T01:14:18.299Z,101152.41
2022-10-20T01:17:16.702Z,101139.88
2022-10-20T01:20:17.355Z,101137.06
2022-10-20T01:23:08.920Z,101003.72
2022-10-20T01:25:50.645Z,101137.38
2022-10-20T01:28:36.907Z,101043.31
2022-10-20T01:31:14.592Z,101071.38
2022-10-20T01:33:54.096Z,101113.88
2022-10-20T01:36:39.817Z,100776.69
2022-10-20T01:39:16.476Z,101134.72
2022-10-20T01:41:59.536Z,100999.00
2022-10-20T01:44:29.568Z,101101.34
2022-10-20T01:46:58.539Z,100960.84
2022-10-20T01:49:26.405Z,101117.59
2022-10-20T01:51:53.522Z,101019.94
2022-10-20T01:54:26.516Z,100909.78
2022-10-20T01:57:18.009Z,101110.56
2022-10-20T02:00:14.753Z,101004.41
2022-10-20T02:03:06.012Z,101042.59
2022-10-20T02:05:46.165Z,100846.22
2022-10-20T02:08:19.896Z,100885.22
2022-10-20T02:10:50.477Z,100765.88
2022-10-20T02:13:19.959Z,100770.81
2022-10-20T02:15:53.648Z,101064.34
2022-10-20T02:18:25.586Z,101077.28
2022-10-20T02:20:56.730Z,101069.81
2022-10-20T02:23:23.560Z,100849.81
2022-10-20T02:25:52.986Z,101076.88
2022-10-20T02:28:21.804Z,100919.84
2022-10-20T02:30:48.660Z,101074.66
2022-10-20T02:33:17.050Z,100943.50
2022-10-20T02:35:51.807Z,101072.84
2022-10-20T02:38:18.392Z,100904.13
2022-10-20T02:40:45.220Z,101028.34
2022-10-20T02:43:14.656Z,100829.41
2022-10-20T02:45:41.278Z,101051.03
2022-10-20T02:48:11.303Z,101026.00
2022-10-20T02:50:38.800Z,100964.97
2022-10-20T02:53:06.143Z,100891.47
2022-10-20T02:55:32.777Z,100953.88
2022-10-20T02:57:59.323Z,100799.81
2022-10-20T03:00:29.506Z,100792.31
2022-10-20T03:02:56.239Z,100624.09
2022-10-20T03:05:23.376Z,100929.81
2022-10-20T03:07:50.221Z,101025.81
2022-10-20T03:10:16.770Z,101025.81
2022-10-20T03:12:43.288Z,100454.13
2022-10-20T03:15:10.263Z,100979.28
2022-10-20T03:17:36.995Z,100661.47
2022-10-20T03:20:05.872Z,100797.00
2022-10-20T03:22:32.405Z,101015.91
2022-10-20T03:24:58.997Z,100856.72
2022-10-20T03:27:25.567Z,100815.38
2022-10-20T03:29:52.190Z,101016.72
2022-10-20T03:32:18.767Z,100687.16
2022-10-20T03:34:46.610Z,100650.31
2022-10-20T03:37:13.160Z,100950.66
2022-10-20T03:39:39.747Z,100800.50
2022-10-20T03:42:06.443Z,100893.34
2022-10-20T03:44:33.080Z,100880.84
2022-10-20T03:47:00.195Z,100899.56
2022-10-20T03:49:26.870Z,100841.84
2022-10-20T03:51:53.463Z,100547.41
2022-10-20T03:54:20.022Z,100841.06
2022-10-20T03:56:46.664Z,100982.78
2022-10-20T03:59:13.356Z,100880.03
2022-10-20T04:01:44.147Z,100686.81
2022-10-20T04:04:12.329Z,100984.59
2022-10-20T04:06:38.919Z,100366.91
2022-10-20T04:09:05.929Z,100923.22
2022-10-20T04:11:33.060Z,100613.09
2022-10-20T04:13:59.838Z,100986.63
2022-10-20T04:16:26.454Z,100815.69
2022-10-20T04:18:53.173Z,100476.25
2022-10-20T04:21:19.785Z,100447.94
2022-10-20T04:23:46.397Z,100569.84
2022-10-20T04:26:15.843Z,100824.13
2022-10-20T04:28:42.736Z,100777.56
2022-10-20T04:31:09.775Z,100590.06
2022-10-20T04:33:37.928Z,100621.31
2022-10-20T04:36:07.561Z,100935.75
2022-10-20T04:38:36.106Z,100847.97
2022-10-20T04:41:04.859Z,100856.25
2022-10-20T04:43:34.315Z,100565.50
2022-10-20T04:46:05.484Z,100823.97
2022-10-20T04:48:35.931Z,100928.28
2022-10-20T04:51:11.051Z,100865.75
2022-10-20T04:53:38.344Z,100616.38
2022-10-20T04:56:06.659Z,100516.00
2022-10-20T04:58:33.726Z,100908.50
2022-10-20T05:01:09.411Z,100812.28
2022-10-20T05:03:36.644Z,100757.44
2022-10-20T05:06:17.858Z,100892.53
2022-10-20T05:08:47.110Z,100378.19
2022-10-20T05:11:14.831Z,100882.84
2022-10-20T05:13:42.023Z,100816.13
2022-10-20T05:16:09.719Z,100355.69
2022-10-20T05:18:36.960Z,100836.91
2022-10-20T05:21:13.228Z,100603.88
2022-10-20T05:23:40.422Z,100632.50
2022-10-20T05:26:18.264Z,100387.84
2022-10-20T05:28:50.287Z,100857.03
2022-10-20T05:31:20.890Z,100861.88
2022-10-20T05:33:50.242Z,100861.28
2022-10-20T05:36:21.585Z,100852.63
2022-10-20T05:38:50.285Z,100857.88
2022-10-20T05:41:19.728Z,100728.22
2022-10-20T05:43:52.554Z,100702.00
2022-10-20T05:46:19.868Z,100849.00
2022-10-20T05:48:46.906Z,100466.94
2022-10-20T05:51:16.322Z,100575.91
2022-10-20T05:53:44.043Z,100501.41
2022-10-20T05:56:13.628Z,100826.00
2022-10-20T05:58:42.021Z,100827.38
2022-10-20T06:01:09.708Z,100830.78
2022-10-20T06:03:37.047Z,100841.69
2022-10-20T06:06:04.325Z,100837.25
2022-10-20T06:08:32.488Z,100352.28
2022-10-20T06:11:04.694Z,100759.03
2022-10-20T06:13:32.905Z,100775.38
2022-10-20T06:16:08.295Z,100580.94
2022-10-20T06:18:35.685Z,100556.59
2022-10-20T06:21:03.850Z,100861.03
2022-10-20T06:23:30.472Z,100866.09
2022-10-20T06:26:02.082Z,100641.16
2022-10-20T06:28:31.027Z,100862.44
2022-10-20T06:30:57.676Z,100783.84
2022-10-20T06:33:24.965Z,100560.81
2022-10-20T06:35:51.476Z,100552.34
2022-10-20T06:38:18.043Z,100867.47
2022-10-20T06:40:44.569Z,100607.13
2022-10-20T06:43:12.843Z,100869.28
2022-10-20T06:45:39.525Z,100506.84
2022-10-20T06:48:06.162Z,100776.78
2022-10-20T06:50:34.311Z,100802.09
2022-10-20T06:53:00.898Z,100801.47
2022-10-20T06:55:27.724Z,100839.94
2022-10-20T06:57:54.535Z,100685.63
2022-10-20T07:00:21.147Z,100860.34
2022-10-20T07:02:47.759Z,100675.38
2022-10-20T07:05:17.525Z,100529.81
2022-10-20T07:07:44.100Z,100488.75
2022-10-20T07:10:10.721Z,100894.22
2022-10-20T07:12:37.665Z,100731.97
2022-10-20T07:15:05.973Z,100866.56
2022-10-20T07:17:32.627Z,100346.09
2022-10-20T07:19:59.204Z,100788.72
2022-10-20T07:22:26.327Z,100871.72
2022-10-20T07:24:53.998Z,100707.75
2022-10-20T07:27:20.947Z,100686.78
2022-10-20T07:29:47.475Z,100789.84
2022-10-20T07:32:14.128Z,100712.31
2022-10-20T07:34:42.164Z,100770.69
2022-10-20T07:37:08.835Z,100276.16
2022-10-20T07:39:35.599Z,100538.38
2022-10-20T07:42:05.328Z,100734.16
2022-10-20T07:44:31.904Z,100531.66
2022-10-20T07:46:58.478Z,100513.13
2022-10-20T07:49:43.404Z,100757.28
2022-10-20T07:52:11.714Z,100705.13
2022-10-20T07:54:38.344Z,100748.81
2022-10-20T07:57:04.957Z,100778.50
2022-10-20T07:59:31.527Z,100795.41
2022-10-20T08:02:00.085Z,100811.88
2022-10-20T08:04:27.709Z,100640.38
2022-10-20T08:06:54.437Z,100695.03
2022-10-20T08:09:21.128Z,100848.94
2022-10-20T08:11:51.378Z,100284.19
2022-10-20T08:14:21.089Z,100823.50
2022-10-20T08:16:52.420Z,100509.53
2022-10-20T08:19:49.110Z,100674.75
2022-10-20T08:22:13.740Z,100486.28
2022-10-20T08:24:40.378Z,100807.88
2022-10-20T08:27:09.083Z,100645.16
2022-10-20T08:29:36.699Z,100862.00
2022-10-20T08:32:03.492Z,100727.53
2022-10-20T08:34:30.349Z,100691.59
2022-10-20T08:36:58.871Z,100535.31
2022-10-20T08:39:25.440Z,100539.56
2022-10-20T08:42:07.613Z,100727.56
2022-10-20T08:44:36.506Z,100584.72
2022-10-20T08:47:11.947Z,100604.47
2022-10-20T08:49:38.796Z,100490.78
2022-10-20T08:52:12.816Z,100351.19
2022-10-20T08:54:39.951Z,100630.69
2022-10-20T08:57:24.909Z,100835.88
2022-10-20T08:59:55.253Z,100576.59
2022-10-20T09:02:22.382Z,100584.38
2022-10-20T09:05:00.658Z,100822.72
2022-10-20T09:07:31.886Z,100518.50
2022-10-20T09:10:04.484Z,100832.13
2022-10-20T09:12:33.248Z,100697.34
2022-10-20T09:14:59.815Z,100786.91
2022-10-20T09:17:26.439Z,100343.69
2022-10-20T09:19:57.167Z,100750.81
2022-10-20T09:22:26.131Z,100317.66
2022-10-20T09:24:57.339Z,100843.94
2022-10-20T09:27:39.798Z,100598.78
2022-10-20T09:30:31.216Z,100815.41
2022-10-20T09:32:57.981Z,100732.09
2022-10-20T09:35:30.085Z,100813.88
2022-10-20T09:38:01.469Z,100758.78
2022-10-20T09:40:28.554Z,100623.47
2022-10-20T09:43:04.710Z,100711.06
2022-10-20T09:45:35.005Z,100739.28
2022-10-20T09:48:24.148Z,100785.03
2022-10-20T09:50:56.032Z,100727.28
2022-10-20T09:53:34.540Z,100723.41
2022-10-20T09:56:01.564Z,100729.63
2022-10-20T09:58:42.105Z,100597.84
2022-10-20T10:01:11.925Z,100845.31
2022-10-20T10:03:50.790Z,100784.53
2022-10-20T10:06:28.948Z,100843.38
2022-10-20T10:08:58.572Z,100845.63
2022-10-20T10:11:36.415Z,100853.25
2022-10-20T10:14:07.226Z,100820.03
2022-10-20T10:16:42.639Z,100597.03
2022-10-20T10:19:18.239Z,100535.06
2022-10-20T10:22:04.411Z,100541.56
2022-10-20T10:24:41.803Z,100861.94
2022-10-20T10:27:36.278Z,100724.16
2022-10-20T10:30:28.591Z,100845.13
2022-10-20T10:32:57.151Z,100466.69
2022-10-20T10:35:33.763Z,100746.91
2022-10-20T10:38:00.898Z,100607.75
2022-10-20T10:40:41.975Z,100832.00
2022-10-20T10:43:30.266Z,100530.22
2022-10-20T10:46:01.541Z,100812.31
2022-10-20T10:48:40.803Z,100801.13
2022-10-20T10:51:36.375Z,100799.75
2022-10-20T10:54:10.904Z,100804.19
2022-10-20T10:56:49.639Z,100799.94
2022-10-20T10:59:33.881Z,100709.72
2022-10-20T11:02:18.639Z,100798.09
2022-10-20T11:05:20.388Z,100762.97
2022-10-20T11:08:13.100Z,100829.66
2022-10-20T11:10:55.673Z,100837.91
2022-10-20T11:13:57.672Z,100836.91
2022-10-20T11:16:40.531Z,100835.28
2022-10-20T11:19:13.203Z,100832.44
2022-10-20T11:21:55.033Z,100829.00
2022-10-20T11:24:40.879Z,100856.91
2022-10-20T11:27:15.904Z,100510.69
2022-10-20T11:29:49.853Z,100591.94
2022-10-20T11:32:27.518Z,100831.03
2022-10-20T11:35:12.640Z,100828.47
2022-10-20T11:37:51.769Z,100622.16
2022-10-20T11:40:32.116Z,100504.09
2022-10-20T11:43:01.813Z,100832.91
2022-10-20T11:45:36.005Z,100820.38
2022-10-20T11:48:34.212Z,100818.69
2022-10-20T11:51:13.971Z,100811.63
2022-10-20T11:54:06.661Z,100735.50
2022-10-20T11:56:55.921Z,100801.53
2022-10-20T12:00:00.171Z,100712.22
2022-10-20T12:02:42.147Z,100769.75
2022-10-20T12:05:30.206Z,100775.72
2022-10-20T12:08:31.129Z,100794.75
2022-10-20T12:11:12.981Z,100752.38
2022-10-20T12:14:14.810Z,100778.34
2022-10-20T12:16:53.963Z,100770.03
2022-10-20T12:19:32.294Z,100680.28
2022-10-20T12:22:14.637Z,100755.88
2022-10-20T12:25:01.401Z,100749.00
2022-10-20T12:27:32.770Z,100466.28
2022-10-20T12:30:25.045Z,100546.06
2022-10-20T12:33:00.840Z,100481.63
2022-10-20T12:35:30.992Z,100735.53
2022-10-20T12:38:04.180Z,100714.50
2022-10-20T12:40:34.609Z,100576.59
2022-10-20T12:43:01.264Z,100682.25
2022-10-20T12:45:40.802Z,100652.16
2022-10-20T12:48:18.392Z,100525.75
2022-10-20T12:50:47.841Z,100625.56
2022-10-20T12:53:17.398Z,100743.06
2022-10-20T12:55:56.041Z,100471.38
2022-10-20T12:58:22.574Z,100746.88
2022-10-20T13:00:52.019Z,100747.38
2022-10-20T13:03:48.138Z,100742.84
2022-10-20T13:06:40.534Z,100724.63
2022-10-20T13:09:09.054Z,100720.00
2022-10-20T13:11:35.586Z,100712.97
2022-10-20T13:14:16.061Z,100714.66
2022-10-20T13:16:51.873Z,100635.78
2022-10-20T13:19:24.423Z,100731.28
2022-10-20T13:21:51.654Z,100658.94
2022-10-20T13:24:28.121Z,100724.63
2022-10-20T13:26:57.703Z,100507.38
2022-10-20T13:29:33.477Z,100589.91
2022-10-20T13:32:06.255Z,100724.75
2022-10-20T13:35:03.772Z,100539.94
2022-10-20T13:37:59.404Z,100708.81
2022-10-20T13:40:43.095Z,100425.34
2022-10-20T13:43:27.838Z,100516.69
2022-10-20T13:46:11.590Z,100444.47
2022-10-20T13:48:50.579Z,100695.63
2022-10-20T13:51:22.419Z,100515.03
2022-10-20T13:53:53.044Z,100504.19
2022-10-20T13:56:34.229Z,100535.13
2022-10-20T13:59:05.748Z,100689.72
2022-10-20T14:01:37.025Z,100101.41
2022-10-20T14:04:30.299Z,100691.25
2022-10-20T14:07:06.046Z,100428.47
2022-10-20T14:09:32.703Z,100588.03
2022-10-20T14:12:06.472Z,100698.69
2022-10-20T14:14:33.583Z,100286.22
2022-10-20T14:17:06.752Z,100357.88
2022-10-20T14:19:34.264Z,100681.63
2022-10-20T14:22:17.618Z,100281.88
2022-10-20T14:24:47.285Z,100559.41
2022-10-20T14:27:30.687Z,100509.66
2022-10-20T14:29:58.337Z,100657.44
2022-10-20T14:32:27.720Z,100547.50
2022-10-20T14:34:58.351Z,100616.97
2022-10-20T14:37:51.008Z,100641.38
2022-10-20T14:40:21.831Z,100668.66
2022-10-20T14:42:49.062Z,100487.50
2022-10-20T14:45:21.076Z,100322.69
2022-10-20T14:47:49.995Z,100189.41
2022-10-20T14:50:37.366Z,100568.84
2022-10-20T14:53:25.208Z,100678.63
2022-10-20T14:55:51.912Z,100588.06
2022-10-20T14:58:31.599Z,100663.16
2022-10-20T15:01:33.898Z,100662.34
2022-10-20T15:04:30.020Z,100348.38
2022-10-20T15:07:21.098Z,100668.66
2022-10-20T15:10:04.304Z,100424.69
2022-10-20T15:12:38.415Z,100667.38
2022-10-20T15:15:11.453Z,100666.00
2022-10-20T15:17:39.819Z,100522.81
2022-10-20T15:20:34.467Z,100657.19
2022-10-20T15:23:03.848Z,100644.56
2022-10-20T15:25:53.290Z,100653.06
2022-10-20T15:28:29.468Z,100657.31
2022-10-20T15:30:58.602Z,100431.97
2022-10-20T15:33:25.211Z,100657.19
2022-10-20T15:35:53.186Z,100266.06
2022-10-20T15:38:20.463Z,100267.47
2022-10-20T15:40:47.522Z,100311.84
2022-10-20T15:43:19.608Z,100508.81
2022-10-20T15:45:53.884Z,100647.16
2022-10-20T15:48:23.133Z,100579.66
2022-10-20T15:50:49.870Z,100432.00
2022-10-20T15:53:18.426Z,100427.47
2022-10-20T15:55:45.621Z,100598.31
2022-10-20T15:58:12.625Z,100651.97
2022-10-20T16:00:39.283Z,100583.94
2022-10-20T16:03:06.783Z,100628.59
2022-10-20T16:05:33.980Z,100325.13
2022-10-20T16:08:00.666Z,100343.78
2022-10-20T16:10:29.597Z,100384.63
2022-10-20T16:12:58.017Z,100612.97
2022-10-20T16:15:30.555Z,100192.41
2022-10-20T16:17:58.489Z,100257.44
2022-10-20T16:20:25.167Z,100556.88
2022-10-20T16:22:51.858Z,100574.41
2022-10-20T16:25:18.670Z,100469.00
2022-10-20T16:27:45.629Z,100494.63
2022-10-20T16:30:12.257Z,100449.31
2022-10-20T16:32:40.637Z,100578.75
2022-10-20T16:35:07.739Z,100321.19
2022-10-20T16:37:36.500Z,100395.22
2022-10-20T16:40:04.323Z,100600.06
2022-10-20T16:42:31.290Z,100517.00
2022-10-20T16:44:58.644Z,100465.84
2022-10-20T16:47:26.184Z,100611.25
2022-10-20T16:49:53.142Z,100477.72
2022-10-20T16:52:20.809Z,100507.66
2022-10-20T16:54:48.420Z,100365.69
2022-10-20T16:57:15.517Z,100310.47
2022-10-20T16:59:43.295Z,100618.28
2022-10-20T17:02:12.788Z,100355.91
2022-10-20T17:04:39.473Z,100503.13
2022-10-20T17:07:06.156Z,100439.50
2022-10-20T17:09:32.727Z,100611.22
2022-10-20T17:11:59.340Z,100337.81
2022-10-20T17:14:27.016Z,100545.91
2022-10-20T17:16:53.719Z,100236.59
2022-10-20T17:19:20.316Z,100407.78
2022-10-20T17:21:51.283Z,100490.13
2022-10-20T17:24:20.444Z,100404.34
2022-10-20T17:26:47.310Z,100481.97
2022-10-20T17:29:13.966Z,100481.09
2022-10-20T17:31:40.528Z,100311.00
2022-10-20T17:34:07.242Z,100520.88
2022-10-20T17:36:33.881Z,100367.13
2022-10-20T17:39:03.725Z,100597.38
2022-10-20T17:41:30.414Z,100612.72
2022-10-20T17:44:00.706Z,100617.53
2022-10-20T17:46:27.647Z,100490.22
2022-10-20T17:48:54.299Z,100336.66
2022-10-20T17:51:27.737Z,100110.84
2022-10-20T17:53:58.094Z,100529.72
2022-10-20T17:56:27.634Z,100608.19
2022-10-20T17:58:55.710Z,100402.72
2022-10-20T18:01:24.018Z,100327.31
2022-10-20T18:03:57.144Z,100314.50
2022-10-20T18:06:28.894Z,100238.00
2022-10-20T18:09:03.927Z,100611.47
2022-10-20T18:11:32.436Z,100214.56
2022-10-20T18:14:00.076Z,100596.63
2022-10-20T18:16:29.055Z,100426.44
2022-10-20T18:18:59.605Z,100258.19
2022-10-20T18:21:28.742Z,100581.75
2022-10-20T18:24:02.219Z,100512.28
2022-10-20T18:26:32.460Z,100444.50
2022-10-20T18:29:01.761Z,100500.66
2022-10-20T18:31:30.718Z,100517.00
2022-10-20T18:34:04.063Z,100580.56
2022-10-20T18:36:33.350Z,100256.78
2022-10-20T18:39:00.025Z,100579.16
2022-10-20T18:41:33.036Z,100573.44
2022-10-20T18:44:05.482Z,100396.91
2022-10-20T18:46:34.327Z,100216.56
2022-10-20T18:49:03.445Z,100557.84
2022-10-20T18:51:31.936Z,100552.22
2022-10-20T18:53:59.892Z,100554.66
2022-10-20T18:56:29.203Z,100312.88
2022-10-20T18:58:58.093Z,100554.19
2022-10-20T19:01:31.402Z,100340.72
2022-10-20T19:03:58.533Z,100205.03
2022-10-20T19:06:25.052Z,100545.38
2022-10-20T19:08:59.128Z,100413.75
2022-10-20T19:11:30.979Z,100006.84
2022-10-20T19:13:59.933Z,100542.16
2022-10-20T19:16:29.057Z,100540.78
2022-10-20T19:18:58.133Z,100258.81
2022-10-20T19:21:26.224Z,100319.72
2022-10-20T19:24:04.252Z,100283.72
2022-10-20T19:27:24.474Z,100443.44
2022-10-20T19:29:44.285Z,100322.44
2022-10-20T19:32:12.136Z,100523.41
2022-10-20T19:34:40.389Z,100515.97
2022-10-20T19:37:08.016Z,100439.22
2022-10-20T19:39:39.091Z,100271.09
2022-10-20T19:42:07.049Z,100152.22
2022-10-20T19:44:34.240Z,100479.25
2022-10-20T19:47:02.630Z,100254.50
2022-10-20T19:49:29.332Z,100450.75
2022-10-20T19:51:56.332Z,100385.44
2022-10-20T19:54:24.038Z,100306.78
2022-10-20T19:56:51.503Z,100317.06
2022-10-20T19:59:18.024Z,100371.09
2022-10-20T20:01:44.831Z,100382.22
2022-10-20T20:04:12.118Z,100292.25
2022-10-20T20:06:38.812Z,100496.09
2022-10-20T20:09:08.191Z,100403.13
2022-10-20T20:11:36.463Z,100483.41
2022-10-20T20:14:13.422Z,100290.53
2022-10-20T20:16:40.430Z,100470.38
2022-10-20T20:19:07.514Z,100260.28
2022-10-20T20:21:36.091Z,100463.72
2022-10-20T20:24:04.433Z,100451.28
2022-10-20T20:26:35.915Z,100454.47
2022-10-20T20:29:03.752Z,100348.50
2022-10-20T20:31:30.363Z,100245.50
2022-10-20T20:33:57.547Z,100151.44
2022-10-20T20:36:28.208Z,100064.28
2022-10-20T20:38:59.449Z,100454.81
2022-10-20T20:41:28.259Z,100446.94
2022-10-20T20:43:55.154Z,100240.72
2022-10-20T20:46:23.467Z,100267.47
2022-10-20T20:48:50.615Z,100455.97
2022-10-20T20:51:17.250Z,100455.53
2022-10-20T20:53:44.257Z,100440.88
2022-10-20T20:56:13.144Z,100425.53
2022-10-20T20:58:45.315Z,100429.78
2022-10-20T21:01:39.960Z,100332.94
2022-10-20T21:04:11.145Z,100253.38
2022-10-20T21:07:01.129Z,100446.28
2022-10-20T21:09:29.090Z,100172.84
2022-10-20T21:11:55.687Z,100415.81
2022-10-20T21:14:22.786Z,100045.81
2022-10-20T21:16:49.360Z,100450.16
2022-10-20T21:19:16.869Z,100182.91
2022-10-20T21:21:50.539Z,100455.53
2022-10-20T21:24:18.443Z,100450.28
2022-10-20T21:26:45.161Z,100222.41
2022-10-20T21:29:11.813Z,100210.16
2022-10-20T21:31:39.331Z,100386.75
2022-10-20T21:34:06.058Z,100237.84
2022-10-20T21:36:36.137Z,100477.88
2022-10-20T21:39:05.768Z,100470.56
2022-10-20T21:41:35.373Z,100460.00
2022-10-20T21:44:04.093Z,100442.03
2022-10-20T21:46:47.512Z,100484.28
2022-10-20T21:49:18.213Z,100260.72
2022-10-20T21:51:52.425Z,100474.91
2022-10-20T21:54:27.072Z,100396.25
2022-10-20T21:56:55.129Z,100053.47
2022-10-20T21:59:30.546Z,100232.00
2022-10-20T22:02:00.121Z,100481.19
2022-10-20T22:04:29.205Z,100199.44
2022-10-20T22:06:56.474Z,100050.47
2022-10-20T22:09:23.970Z,100164.91
2022-10-20T22:11:55.154Z,100392.25
2022-10-20T22:14:22.321Z,100475.09
2022-10-20T22:16:49.009Z,100413.88
2022-10-20T22:19:23.001Z,100369.59
2022-10-20T22:21:51.006Z,100227.81
2022-10-20T22:24:18.800Z,100268.53
2022-10-20T22:26:46.207Z,100221.66
2022-10-20T22:29:13.142Z,100260.22
2022-10-20T22:31:41.870Z,100224.56
2022-10-20T22:34:10.156Z,100465.78
2022-10-20T22:36:39.401Z,100052.31
2022-10-20T22:39:06.966Z,100257.03
2022-10-20T22:41:34.399Z,100360.25
2022-10-20T22:44:01.001Z,100045.00
2022-10-20T22:46:27.731Z,100308.69
2022-10-20T22:48:55.185Z,100211.97
2022-10-20T22:51:21.955Z,100152.41
2022-10-20T22:53:48.649Z,100420.97
2022-10-20T22:56:21.365Z,100154.34
2022-10-20T22:58:48.898Z,100143.38
2022-10-20T23:01:18.353Z,100438.22
2022-10-20T23:03:48.259Z,100420.81
2022-10-20T23:06:20.810Z,100393.50
2022-10-20T23:08:50.017Z,100443.22
2022-10-20T23:11:17.729Z,100193.19
2022-10-20T23:13:45.041Z,100384.16
2022-10-20T23:16:12.083Z,100287.81
2022-10-20T23:18:38.977Z,100384.16
2022-10-20T23:21:05.846Z,100421.31
2022-10-20T23:23:35.427Z,100339.97
2022-10-20T23:26:04.515Z,100221.41
2022-10-20T23:28:31.986Z,100341.50
2022-10-20T23:31:15.139Z,100401.63
2022-10-20T23:33:43.419Z,100196.09
2022-10-20T23:36:10.811Z,100361.91
2022-10-20T23:38:39.134Z,100141.56
2022-10-20T23:41:06.087Z,100081.97
2022-10-20T23:43:33.204Z,100217.47
2022-10-20T23:46:00.376Z,100037.44
2022-10-20T23:48:27.897Z,100139.63
2022-10-20T23:50:54.988Z,100035.19
2022-10-20T23:53:21.853Z,100366.19
2022-10-20T23:55:48.604Z,100262.66
2022-10-20T23:58:15.516Z,100106.44
